Time,TemperatureF,DewpointF,PressureIn,WindDirection,WindDirectionDegrees,WindSpeedMPH,WindSpeedGustMPH,Humidity,HourlyPrecipIn,Conditions,Clouds,dailyrainin,SoftwareType,DateUTC
2013-03-04 00:05:00,52.0,36.8,29.83,SE,124,3.0,3.0,56,0.00,,,0.00,Wunderground v.1.13,2013-03-04 08:05:00,
2013-03-04 00:11:00,51.9,36.7,29.83,SSE,150,2.0,6.0,56,0.00,,,0.00,Wunderground v.1.13,2013-03-04 08:11:00,
2013-03-04 00:17:00,52.2,37.0,29.84,SSW,202,3.0,8.0,56,0.00,,,0.00,Wunderground v.1.13,2013-03-04 08:17:00,
2013-03-04 00:23:00,52.2,37.0,29.84,SW,226,4.0,7.0,56,0.00,,,0.00,Wunderground v.1.13,2013-03-04 08:23:00,
2013-03-04 00:29:00,51.9,36.7,29.84,WSW,244,4.0,6.0,56,0.00,,,0.00,Wunderground v.1.13,2013-03-04 08:29:00,
2013-03-04 00:35:00,51.4,36.7,29.84,SSW,208,3.0,3.0,57,0.00,,,0.00,Wunderground v.1.13,2013-03-04 08:35:00,
2013-03-04 00:41:00,51.1,36.8,29.84,SSW,206,2.0,3.0,58,0.00,,,0.00,Wunderground v.1.13,2013-03-04 08:41:00,
2013-03-04 00:47:00,51.0,36.7,29.85,SW,226,1.0,5.0,58,0.00,,,0.00,Wunderground v.1.13,2013-03-04 08:47:00,
2013-03-04 00:53:00,51.1,36.4,29.85,SW,236,3.0,8.0,57,0.00,,,0.00,Wunderground v.1.13,2013-03-04 08:53:00,
2013-03-04 00:59:00,51.6,36.4,29.85,WSW,239,5.0,6.0,56,0.00,,,0.00,Wunderground v.1.13,2013-03-04 08:59:00,
2013-03-04 01:05:00,51.7,36.0,29.85,WSW,253,5.0,5.0,55,0.00,,,0.00,Wunderground v.1.13,2013-03-04 09:05:00,
2013-03-04 01:11:00,51.6,36.4,29.85,WSW,237,4.0,4.0,56,0.00,,,0.00,Wunderground v.1.13,2013-03-04 09:11:00,
2013-03-04 01:17:00,51.4,36.7,29.91,WSW,251,3.0,5.0,57,0.00,,,0.00,Wunderground v.1.13,2013-03-04 09:17:00,
2013-03-04 01:23:00,51.1,36.4,29.91,WSW,240,3.0,5.0,57,0.00,,,0.00,Wunderground v.1.13,2013-03-04 09:23:00,
2013-03-04 01:29:00,51.0,36.3,29.91,WSW,237,2.0,4.0,57,0.00,,,0.00,Wunderground v.1.13,2013-03-04 09:29:00,
2013-03-04 01:35:00,50.8,36.1,29.91,SW,230,2.0,3.0,57,0.00,,,0.00,Wunderground v.1.13,2013-03-04 09:35:00,
2013-03-04 01:41:00,50.7,36.5,29.91,WSW,243,2.0,5.0,58,0.00,,,0.00,Wunderground v.1.13,2013-03-04 09:41:00,
2013-03-04 01:47:00,50.4,36.6,29.92,West,267,2.0,3.0,59,0.00,,,0.00,Wunderground v.1.13,2013-03-04 09:47:00,
2013-03-04 01:53:00,50.1,36.3,29.92,SW,229,2.0,5.0,59,0.00,,,0.00,Wunderground v.1.13,2013-03-04 09:53:00,
2013-03-04 01:59:00,49.6,37.1,29.92,SW,227,1.0,3.0,62,0.00,,,0.00,Wunderground v.1.13,2013-03-04 09:59:00,
2013-03-04 02:05:00,49.4,37.7,29.93,SW,222,2.0,2.0,64,0.00,,,0.00,Wunderground v.1.13,2013-03-04 10:05:00,
2013-03-04 02:11:00,49.2,37.9,29.93,SW,215,2.0,2.0,65,0.00,,,0.00,Wunderground v.1.13,2013-03-04 10:11:00,
2013-03-04 02:16:00,49.1,38.2,29.92,SW,215,2.0,5.0,66,0.00,,,0.00,Wunderground v.1.13,2013-03-04 10:16:00,
2013-03-04 02:22:00,48.9,38.0,29.92,SSE,162,1.0,1.0,66,0.00,,,0.00,Wunderground v.1.13,2013-03-04 10:22:00,
2013-03-04 02:28:00,48.9,38.0,29.92,SW,223,1.0,3.0,66,0.00,,,0.00,Wunderground v.1.13,2013-03-04 10:28:00,
2013-03-04 02:34:00,48.9,37.6,29.92,SSW,203,2.0,3.0,65,0.00,,,0.00,Wunderground v.1.13,2013-03-04 10:34:00,
2013-03-04 02:40:00,48.6,37.7,29.92,SSW,203,1.0,1.0,66,0.00,,,0.00,Wunderground v.1.13,2013-03-04 10:40:00,
2013-03-04 02:46:00,48.3,37.5,29.92,SW,229,1.0,5.0,66,0.00,,,0.00,Wunderground v.1.13,2013-03-04 10:46:00,
2013-03-04 02:52:00,48.5,37.3,29.92,SW,220,1.0,2.0,65,0.00,,,0.00,Wunderground v.1.13,2013-03-04 10:52:00,
2013-03-04 02:58:00,48.8,36.8,29.92,West,272,1.0,3.0,63,0.00,,,0.00,Wunderground v.1.13,2013-03-04 10:58:00,
2013-03-04 03:04:00,48.9,36.4,29.92,SW,233,2.0,6.0,62,0.00,,,0.00,Wunderground v.1.13,2013-03-04 11:04:00,
2013-03-04 03:09:00,48.9,36.9,29.92,WSW,237,3.0,6.0,63,0.00,,,0.00,Wunderground v.1.13,2013-03-04 11:09:00,
2013-03-04 03:15:00,49.1,37.0,29.93,SW,234,3.0,3.0,63,0.00,,,0.00,Wunderground v.1.13,2013-03-04 11:15:00,
2013-03-04 03:21:00,49.1,37.0,29.93,SW,236,1.0,1.0,63,0.00,,,0.00,Wunderground v.1.13,2013-03-04 11:21:00,
2013-03-04 03:27:00,48.8,36.8,29.93,SW,236,0.0,2.0,63,0.00,,,0.00,Wunderground v.1.13,2013-03-04 11:27:00,
2013-03-04 03:33:00,48.3,36.7,29.93,SW,236,1.0,2.0,64,0.00,,,0.00,Wunderground v.1.13,2013-03-04 11:33:00,
2013-03-04 03:39:00,47.9,36.3,29.93,SW,236,1.0,2.0,64,0.00,,,0.00,Wunderground v.1.13,2013-03-04 11:39:00,
2013-03-04 03:45:00,47.3,36.1,29.94,SW,236,1.0,1.0,65,0.00,,,0.00,Wunderground v.1.13,2013-03-04 11:45:00,
2013-03-04 03:51:00,47.0,35.8,29.94,SW,236,1.0,2.0,65,0.00,,,0.00,Wunderground v.1.13,2013-03-04 11:51:00,
2013-03-04 03:57:00,47.0,36.2,29.94,SW,236,1.0,2.0,66,0.00,,,0.00,Wunderground v.1.13,2013-03-04 11:57:00,
2013-03-04 04:03:00,47.7,36.5,29.94,WSW,257,3.0,8.0,65,0.00,,,0.00,Wunderground v.1.13,2013-03-04 12:03:00,
2013-03-04 04:08:00,48.3,36.3,29.94,WSW,240,5.0,5.0,63,0.00,,,0.00,Wunderground v.1.13,2013-03-04 12:08:00,
2013-03-04 04:14:00,48.0,36.4,29.94,WSW,250,3.0,13.0,64,0.00,,,0.00,Wunderground v.1.13,2013-03-04 12:14:00,
2013-03-04 04:20:00,48.0,36.0,29.94,WSW,247,4.0,5.0,63,0.00,,,0.00,Wunderground v.1.13,2013-03-04 12:20:00,
2013-03-04 04:26:00,48.2,35.8,29.94,SW,234,4.0,6.0,62,0.00,,,0.00,Wunderground v.1.13,2013-03-04 12:26:00,
2013-03-04 04:32:00,47.7,35.7,29.94,WSW,250,4.0,4.0,63,0.00,,,0.00,Wunderground v.1.13,2013-03-04 12:32:00,
2013-03-04 04:37:00,47.3,35.7,29.94,WSW,246,3.0,3.0,64,0.00,,,0.00,Wunderground v.1.13,2013-03-04 12:37:00,
2013-03-04 04:43:00,46.8,35.3,29.94,WSW,244,1.0,3.0,64,0.00,,,0.00,Wunderground v.1.13,2013-03-04 12:43:00,
2013-03-04 04:49:00,46.4,34.9,29.95,WSW,239,1.0,1.0,64,0.00,,,0.00,Wunderground v.1.13,2013-03-04 12:49:00,
2013-03-04 04:55:00,45.8,34.7,29.95,WSW,239,1.0,1.0,65,0.00,,,0.00,Wunderground v.1.13,2013-03-04 12:55:00,
2013-03-04 05:01:00,45.4,34.7,29.96,SW,234,2.0,5.0,66,0.00,,,0.00,Wunderground v.1.13,2013-03-04 13:01:00,
2013-03-04 05:07:00,45.5,35.9,29.96,WSW,250,4.0,6.0,69,0.00,,,0.00,Wunderground v.1.13,2013-03-04 13:07:00,
2013-03-04 05:13:00,45.8,36.6,29.96,WSW,248,5.0,6.0,70,0.00,,,0.00,Wunderground v.1.13,2013-03-04 13:13:00,
2013-03-04 05:18:00,46.1,37.2,29.93,WSW,241,5.0,5.0,71,0.00,,,0.00,Wunderground v.1.13,2013-03-04 13:18:00,
2013-03-04 05:24:00,46.2,37.3,29.93,West,271,4.0,6.0,71,0.00,,,0.00,Wunderground v.1.13,2013-03-04 13:24:00,
2013-03-04 05:30:00,46.4,37.1,29.93,WSW,254,4.0,4.0,70,0.00,,,0.00,Wunderground v.1.13,2013-03-04 13:30:00,
2013-03-04 05:36:00,46.2,36.6,29.93,West,265,3.0,5.0,69,0.00,,,0.00,Wunderground v.1.13,2013-03-04 13:36:00,
2013-03-04 05:42:00,46.2,36.6,29.93,West,265,2.0,2.0,69,0.00,,,0.00,Wunderground v.1.13,2013-03-04 13:42:00,
2013-03-04 05:48:00,46.1,36.1,29.93,West,265,1.0,1.0,68,0.00,,,0.00,Wunderground v.1.13,2013-03-04 13:48:00,
2013-03-04 05:54:00,45.8,35.8,29.93,West,265,0.0,0.0,68,0.00,,,0.00,Wunderground v.1.13,2013-03-04 13:54:00,
2013-03-04 06:00:00,45.2,36.0,29.94,SSW,212,0.0,0.0,70,0.00,,,0.00,Wunderground v.1.13,2013-03-04 14:00:00,
2013-03-04 06:05:00,44.9,36.4,29.94,SSW,213,1.0,2.0,72,0.00,,,0.00,Wunderground v.1.13,2013-03-04 14:05:00,
2013-03-04 06:11:00,45.2,37.1,29.94,SW,233,2.0,7.0,73,0.00,,,0.00,Wunderground v.1.13,2013-03-04 14:11:00,
2013-03-04 06:17:00,45.4,36.9,29.93,WSW,244,5.0,5.0,72,0.00,,,0.00,Wunderground v.1.13,2013-03-04 14:17:00,
2013-03-04 06:23:00,45.8,37.3,29.93,SW,226,5.0,7.0,72,0.00,,,0.00,Wunderground v.1.13,2013-03-04 14:23:00,
2013-03-04 06:29:00,46.0,37.1,29.93,West,275,4.0,5.0,71,0.00,,,0.00,Wunderground v.1.13,2013-03-04 14:29:00,
2013-03-04 06:35:00,46.1,37.2,29.94,WSW,256,2.0,5.0,71,0.00,,,0.00,Wunderground v.1.13,2013-03-04 14:35:00,
2013-03-04 06:41:00,46.0,37.5,29.94,SW,227,2.0,6.0,72,0.00,,,0.00,Wunderground v.1.13,2013-03-04 14:41:00,
2013-03-04 06:47:00,46.5,37.2,29.94,West,265,5.0,10.0,70,0.00,,,0.00,Wunderground v.1.13,2013-03-04 14:47:00,
2013-03-04 06:53:00,47.4,37.4,29.94,WNW,287,6.0,7.0,68,0.00,,,0.00,Wunderground v.1.13,2013-03-04 14:53:00,
2013-03-04 06:58:00,47.7,37.3,29.94,West,281,4.0,6.0,67,0.00,,,0.00,Wunderground v.1.13,2013-03-04 14:58:00,
2013-03-04 07:04:00,48.0,36.8,29.94,WSW,251,3.0,4.0,65,0.00,,,0.00,Wunderground v.1.13,2013-03-04 15:04:00,
2013-03-04 07:09:00,48.3,37.1,29.94,WSW,241,2.0,8.0,65,0.00,,,0.00,Wunderground v.1.13,2013-03-04 15:09:00,
2013-03-04 07:15:00,48.5,38.0,29.95,SW,229,5.0,6.0,67,0.00,,,0.00,Wunderground v.1.13,2013-03-04 15:15:00,
2013-03-04 07:21:00,48.5,38.4,29.95,WSW,253,7.0,11.0,68,0.00,,,0.00,Wunderground v.1.13,2013-03-04 15:21:00,
2013-03-04 07:27:00,48.8,38.3,29.95,WSW,246,7.0,10.0,67,0.00,,,0.00,Wunderground v.1.13,2013-03-04 15:27:00,
2013-03-04 07:33:00,49.1,38.6,29.96,WSW,237,7.0,8.0,67,0.00,,,0.00,Wunderground v.1.13,2013-03-04 15:33:00,
2013-03-04 07:39:00,49.5,38.6,29.96,WSW,244,6.0,11.0,66,0.00,,,0.00,Wunderground v.1.13,2013-03-04 15:39:00,
2013-03-04 07:45:00,50.4,39.1,29.97,WSW,239,7.0,7.0,65,0.00,,,0.00,Wunderground v.1.13,2013-03-04 15:45:00,
2013-03-04 07:51:00,51.3,39.1,29.97,SSW,209,7.0,7.0,63,0.00,,,0.00,Wunderground v.1.13,2013-03-04 15:51:00,
2013-03-04 07:57:00,52.2,39.1,29.97,WSW,250,7.0,7.0,61,0.00,,,0.00,Wunderground v.1.13,2013-03-04 15:57:00,
2013-03-04 08:03:00,53.1,39.1,29.96,SW,236,7.0,13.0,59,0.00,,,0.00,Wunderground v.1.13,2013-03-04 16:03:00,
2013-03-04 08:08:00,53.6,38.7,29.96,WSW,253,7.0,11.0,57,0.00,,,0.00,Wunderground v.1.13,2013-03-04 16:08:00,
2013-03-04 08:14:00,54.2,38.4,29.96,South,186,6.0,8.0,55,0.00,,,0.00,Wunderground v.1.13,2013-03-04 16:14:00,
2013-03-04 08:20:00,55.0,38.6,29.96,WSW,256,5.0,8.0,54,0.00,,,0.00,Wunderground v.1.13,2013-03-04 16:20:00,
2013-03-04 08:26:00,55.6,38.2,29.96,SW,236,5.0,5.0,52,0.00,,,0.00,Wunderground v.1.13,2013-03-04 16:26:00,
2013-03-04 08:32:00,56.3,37.9,29.96,SW,224,5.0,5.0,50,0.00,,,0.00,Wunderground v.1.13,2013-03-04 16:32:00,
2013-03-04 08:38:00,56.9,37.4,29.96,West,272,4.0,5.0,48,0.00,,,0.00,Wunderground v.1.13,2013-03-04 16:38:00,
2013-03-04 08:44:00,57.6,37.5,29.96,SSW,209,3.0,4.0,47,0.00,,,0.00,Wunderground v.1.13,2013-03-04 16:44:00,
2013-03-04 08:50:00,58.4,37.7,29.95,SW,216,2.0,2.0,46,0.00,,,0.00,Wunderground v.1.13,2013-03-04 16:50:00,
2013-03-04 08:56:00,59.3,36.8,29.95,SW,236,1.0,5.0,43,0.00,,,0.00,Wunderground v.1.13,2013-03-04 16:56:00,
2013-03-04 09:02:00,59.9,37.3,29.95,SW,226,1.0,13.0,43,0.00,,,0.00,Wunderground v.1.13,2013-03-04 17:02:00,
2013-03-04 09:07:00,60.4,37.2,29.95,SSW,205,2.0,2.0,42,0.00,,,0.00,Wunderground v.1.13,2013-03-04 17:07:00,
2013-03-04 09:13:00,61.2,36.0,29.95,West,265,2.0,5.0,39,0.00,,,0.00,Wunderground v.1.13,2013-03-04 17:13:00,
2013-03-04 09:19:00,61.5,36.3,29.95,WSW,237,2.0,3.0,39,0.00,,,0.00,Wunderground v.1.13,2013-03-04 17:19:00,
2013-03-04 09:25:00,62.1,34.8,29.95,WSW,250,1.0,2.0,36,0.00,,,0.00,Wunderground v.1.13,2013-03-04 17:25:00,
2013-03-04 09:30:00,62.6,34.5,29.95,SW,229,1.0,1.0,35,0.00,,,0.00,Wunderground v.1.13,2013-03-04 17:30:00,
2013-03-04 09:36:00,63.7,34.8,29.95,SE,140,1.0,7.0,34,0.00,,,0.00,Wunderground v.1.13,2013-03-04 17:36:00,
2013-03-04 09:42:00,64.5,34.7,29.95,SSE,155,1.0,1.0,33,0.00,,,0.00,Wunderground v.1.13,2013-03-04 17:42:00,
2013-03-04 09:48:00,65.0,34.4,29.94,SE,141,1.0,5.0,32,0.00,,,0.00,Wunderground v.1.13,2013-03-04 17:48:00,
2013-03-04 09:54:00,65.0,35.2,29.94,SE,144,2.0,3.0,33,0.00,,,0.00,Wunderground v.1.13,2013-03-04 17:54:00,
2013-03-04 10:00:00,65.3,33.9,29.94,ENE,66,1.0,1.0,31,0.00,,,0.00,Wunderground v.1.13,2013-03-04 18:00:00,
2013-03-04 10:05:00,65.8,32.6,29.94,ENE,58,1.0,1.0,29,0.00,,,0.00,Wunderground v.1.13,2013-03-04 18:05:00,
2013-03-04 10:11:00,65.8,32.6,29.94,WNW,298,1.0,3.0,29,0.00,,,0.00,Wunderground v.1.13,2013-03-04 18:11:00,
2013-03-04 10:16:00,66.0,31.9,29.94,West,277,1.0,1.0,28,0.00,,,0.00,Wunderground v.1.13,2013-03-04 18:16:00,
2013-03-04 10:22:00,66.1,30.2,29.94,North,0,1.0,5.0,26,0.00,,,0.00,Wunderground v.1.13,2013-03-04 18:22:00,
2013-03-04 10:27:00,66.4,31.4,29.94,NNE,31,2.0,6.0,27,0.00,,,0.00,Wunderground v.1.13,2013-03-04 18:27:00,
2013-03-04 10:30:00,66.6,31.5,29.94,ENE,73,2.0,4.0,27,0.00,,,0.00,Wunderground v.1.13,2013-03-04 18:30:00,
2013-03-04 10:31:00,66.8,31.7,29.94,North,6,2.0,4.0,27,0.00,,,0.00,Wunderground v.1.13,2013-03-04 18:31:00,
2013-03-04 10:36:00,66.8,29.8,29.94,NNE,16,2.0,3.0,25,0.00,,,0.00,Wunderground v.1.13,2013-03-04 18:36:00,
2013-03-04 10:41:00,66.9,28.9,29.94,North,0,4.0,6.0,24,0.00,,,0.00,Wunderground v.1.13,2013-03-04 18:41:00,
2013-03-04 10:43:00,66.9,28.9,29.94,North,7,4.0,6.0,24,0.00,,,0.00,Wunderground v.1.13,2013-03-04 18:43:00,
2013-03-04 10:45:00,66.9,28.9,29.94,NNE,13,3.0,3.0,24,0.00,,,0.00,Wunderground v.1.13,2013-03-04 18:45:00,
2013-03-04 10:51:00,66.9,29.9,29.94,North,1,3.0,3.0,25,0.00,,,0.00,Wunderground v.1.13,2013-03-04 18:51:00,
2013-03-04 10:57:00,66.6,29.6,29.94,NNE,20,3.0,4.0,25,0.00,,,0.00,Wunderground v.1.13,2013-03-04 18:57:00,
2013-03-04 11:03:00,66.4,29.5,29.94,NNE,13,3.0,10.0,25,0.00,,,0.00,Wunderground v.1.13,2013-03-04 19:03:00,
2013-03-04 11:08:00,66.6,29.6,29.94,North,359,4.0,7.0,25,0.00,,,0.00,Wunderground v.1.13,2013-03-04 19:08:00,
2013-03-04 11:14:00,66.8,28.8,29.94,East,85,4.0,8.0,24,0.00,,,0.00,Wunderground v.1.13,2013-03-04 19:14:00,
2013-03-04 11:19:00,67.3,29.2,29.93,NNW,346,3.0,6.0,24,0.00,,,0.00,Wunderground v.1.13,2013-03-04 19:19:00,
2013-03-04 11:24:00,67.4,29.3,29.93,NNE,16,2.0,4.0,24,0.00,,,0.00,Wunderground v.1.13,2013-03-04 19:24:00,
2013-03-04 11:30:00,67.4,29.3,29.93,NNW,344,2.0,2.0,24,0.00,,,0.00,Wunderground v.1.13,2013-03-04 19:30:00,
2013-03-04 11:36:00,67.9,29.7,29.93,ESE,112,2.0,2.0,24,0.00,,,0.00,Wunderground v.1.13,2013-03-04 19:36:00,
2013-03-04 11:42:00,68.1,28.9,29.93,ENE,61,3.0,6.0,23,0.00,,,0.00,Wunderground v.1.13,2013-03-04 19:42:00,
2013-03-04 11:48:00,68.1,29.9,29.92,ESE,110,3.0,5.0,24,0.00,,,0.00,Wunderground v.1.13,2013-03-04 19:48:00,
2013-03-04 11:54:00,68.6,29.3,29.92,ENE,66,2.0,6.0,23,0.00,,,0.00,Wunderground v.1.13,2013-03-04 19:54:00,
2013-03-04 12:00:00,68.8,30.5,29.92,East,95,3.0,6.0,24,0.00,,,0.00,Wunderground v.1.13,2013-03-04 20:00:00,
2013-03-04 12:05:00,68.6,30.3,29.92,SE,138,4.0,4.0,24,0.00,,,0.00,Wunderground v.1.13,2013-03-04 20:05:00,
2013-03-04 12:11:00,68.9,30.6,29.92,SE,124,3.0,3.0,24,0.00,,,0.00,Wunderground v.1.13,2013-03-04 20:11:00,
2013-03-04 12:17:00,69.4,31.0,29.91,SE,137,2.0,5.0,24,0.00,,,0.00,Wunderground v.1.13,2013-03-04 20:17:00,
2013-03-04 12:23:00,69.6,31.2,29.91,ESE,114,2.0,2.0,24,0.00,,,0.00,Wunderground v.1.13,2013-03-04 20:23:00,
2013-03-04 12:29:00,69.4,31.0,29.91,ENE,78,2.0,3.0,24,0.00,,,0.00,Wunderground v.1.13,2013-03-04 20:29:00,
2013-03-04 12:35:00,69.4,31.0,29.91,WNW,296,2.0,3.0,24,0.00,,,0.00,Wunderground v.1.13,2013-03-04 20:35:00,
2013-03-04 12:41:00,69.6,30.1,29.91,SSE,148,1.0,3.0,23,0.00,,,0.00,Wunderground v.1.13,2013-03-04 20:41:00,
2013-03-04 12:47:00,69.8,31.4,29.90,SE,144,1.0,1.0,24,0.00,,,0.00,Wunderground v.1.13,2013-03-04 20:47:00,
2013-03-04 12:53:00,70.3,30.7,29.90,East,80,1.0,3.0,23,0.00,,,0.00,Wunderground v.1.13,2013-03-04 20:53:00,
2013-03-04 12:59:00,70.6,31.0,29.90,South,179,2.0,2.0,23,0.00,,,0.00,Wunderground v.1.13,2013-03-04 20:59:00,
2013-03-04 13:05:00,70.8,31.1,29.90,SE,140,2.0,7.0,23,0.00,,,0.00,Wunderground v.1.13,2013-03-04 21:05:00,
2013-03-04 13:11:00,70.6,29.9,29.90,ESE,109,4.0,6.0,22,0.00,,,0.00,Wunderground v.1.13,2013-03-04 21:11:00,
2013-03-04 13:17:00,70.6,29.9,29.90,South,175,5.0,10.0,22,0.00,,,0.00,Wunderground v.1.13,2013-03-04 21:17:00,
2013-03-04 13:23:00,70.1,29.5,29.90,SE,138,6.0,7.0,22,0.00,,,0.00,Wunderground v.1.13,2013-03-04 21:23:00,
2013-03-04 13:29:00,70.1,29.5,29.90,SSE,152,0.0,6.0,22,0.00,,,0.00,Wunderground v.1.13,2013-03-04 21:29:00,
2013-03-04 13:35:00,70.1,29.5,29.89,SW,227,6.0,6.0,22,0.00,,,0.00,Wunderground v.1.13,2013-03-04 21:35:00,
2013-03-04 13:41:00,70.1,29.5,29.89,West,261,8.0,8.0,22,0.00,,,0.00,Wunderground v.1.13,2013-03-04 21:41:00,
2013-03-04 13:47:00,70.1,30.6,29.89,NW,316,6.0,6.0,23,0.00,,,0.00,Wunderground v.1.13,2013-03-04 21:47:00,
2013-03-04 13:52:00,70.1,30.6,29.89,NW,316,6.0,6.0,23,0.00,,,0.00,Wunderground v.1.13,2013-03-04 21:52:00,
2013-03-04 13:58:00,70.1,30.6,29.89,ESE,112,1.0,1.0,23,0.00,,,0.00,Wunderground v.1.13,2013-03-04 21:58:00,
2013-03-04 14:03:00,70.1,30.6,29.88,ESE,112,1.0,7.0,23,0.00,,,0.00,Wunderground v.1.13,2013-03-04 22:03:00,
2013-03-04 14:08:00,-999.9,-99.9,29.88,North,32767,-999.0,0.0,255,-99.99,,,0.00,Wunderground v.1.13,2013-03-04 22:08:00,
2013-03-04 14:14:00,-999.9,-99.9,29.88,North,32767,-999.0,0.0,255,-99.99,,,0.00,Wunderground v.1.13,2013-03-04 22:14:00,
2013-03-04 14:20:00,-999.9,-99.9,29.93,North,32767,-999.0,0.0,255,-99.99,,,0.00,Wunderground v.1.13,2013-03-04 22:20:00,
2013-03-04 14:26:00,-999.9,-99.9,29.93,North,32767,-999.0,0.0,255,-99.99,,,0.00,Wunderground v.1.13,2013-03-04 22:26:00,
2013-03-04 14:32:00,-999.9,-99.9,29.93,North,32767,-999.0,0.0,255,-99.99,,,0.00,Wunderground v.1.13,2013-03-04 22:32:00,
2013-03-04 14:38:00,-999.9,-99.9,29.93,North,32767,-999.0,0.0,255,-99.99,,,0.00,Wunderground v.1.13,2013-03-04 22:38:00,
2013-03-04 14:44:00,-999.9,-99.9,29.93,North,32767,-999.0,0.0,255,-99.99,,,0.00,Wunderground v.1.13,2013-03-04 22:44:00,
2013-03-04 14:50:00,-999.9,-99.9,29.93,North,32767,-999.0,0.0,255,-99.99,,,0.00,Wunderground v.1.13,2013-03-04 22:50:00,
2013-03-04 14:55:00,-999.9,-99.9,29.93,North,32767,-999.0,0.0,255,-99.99,,,0.00,Wunderground v.1.13,2013-03-04 22:55:00,
2013-03-04 15:00:00,-999.9,-99.9,29.92,North,32767,-999.0,0.0,255,-99.99,,,0.00,Wunderground v.1.13,2013-03-04 23:00:00,
2013-03-04 15:05:00,-999.9,-99.9,29.92,North,32767,-999.0,0.0,255,-99.99,,,0.00,Wunderground v.1.13,2013-03-04 23:05:00,
2013-03-04 15:11:00,-999.9,-99.9,29.92,North,32767,-999.0,0.0,255,-99.99,,,0.00,Wunderground v.1.13,2013-03-04 23:11:00,
2013-03-04 15:17:00,-999.9,-99.9,29.93,North,32767,-999.0,0.0,255,-99.99,,,0.00,Wunderground v.1.13,2013-03-04 23:17:00,
2013-03-04 15:22:00,-999.9,-99.9,29.93,North,32767,-999.0,0.0,255,-99.99,,,0.00,Wunderground v.1.13,2013-03-04 23:22:00,
2013-03-04 15:28:00,-999.9,-99.9,29.93,North,32767,-999.0,0.0,255,-99.99,,,0.00,Wunderground v.1.13,2013-03-04 23:28:00,
2013-03-04 15:34:00,-999.9,-99.9,29.93,North,32767,-999.0,0.0,255,-99.99,,,0.00,Wunderground v.1.13,2013-03-04 23:34:00,
2013-03-04 15:40:00,-999.9,-99.9,29.93,North,32767,-999.0,0.0,255,-99.99,,,0.00,Wunderground v.1.13,2013-03-04 23:40:00,
2013-03-04 15:46:00,-999.9,-99.9,29.93,North,32767,-999.0,0.0,255,-99.99,,,0.00,Wunderground v.1.13,2013-03-04 23:46:00,
2013-03-04 15:52:00,-999.9,-99.9,29.93,North,32767,-999.0,0.0,255,-99.99,,,0.00,Wunderground v.1.13,2013-03-04 23:52:00,
2013-03-04 15:58:00,-999.9,-99.9,29.93,North,32767,-999.0,0.0,255,-99.99,,,0.00,Wunderground v.1.13,2013-03-04 23:58:00,
2013-03-04 16:04:00,-999.9,-99.9,29.93,North,32767,-999.0,0.0,255,-99.99,,,0.00,Wunderground v.1.13,2013-03-05 00:04:00,
2013-03-04 16:09:00,-999.9,-99.9,29.93,North,32767,-999.0,0.0,255,-99.99,,,0.00,Wunderground v.1.13,2013-03-05 00:09:00,
2013-03-04 16:15:00,-999.9,-99.9,29.94,North,32767,-999.0,0.0,255,-99.99,,,0.00,Wunderground v.1.13,2013-03-05 00:15:00,
2013-03-04 16:20:00,-999.9,-99.9,29.94,North,32767,-999.0,0.0,255,-99.99,,,0.00,Wunderground v.1.13,2013-03-05 00:20:00,
2013-03-04 16:26:00,-999.9,-99.9,29.94,North,32767,-999.0,0.0,255,-99.99,,,0.00,Wunderground v.1.13,2013-03-05 00:26:00,
2013-03-04 16:32:00,-999.9,-99.9,29.94,North,32767,-999.0,0.0,255,-99.99,,,0.00,Wunderground v.1.13,2013-03-05 00:32:00,
2013-03-04 16:38:00,-999.9,-99.9,29.94,North,32767,-999.0,0.0,255,-99.99,,,0.00,Wunderground v.1.13,2013-03-05 00:38:00,
2013-03-04 16:44:00,-999.9,-99.9,29.94,North,32767,-999.0,0.0,255,-99.99,,,0.00,Wunderground v.1.13,2013-03-05 00:44:00,
2013-03-04 16:50:00,-999.9,-99.9,29.95,North,32767,-999.0,0.0,255,-99.99,,,0.00,Wunderground v.1.13,2013-03-05 00:50:00,
2013-03-04 16:56:00,-999.9,-99.9,29.95,North,32767,-999.0,0.0,255,-99.99,,,0.00,Wunderground v.1.13,2013-03-05 00:56:00,
2013-03-04 17:02:00,-999.9,-99.9,29.95,North,32767,-999.0,0.0,255,-99.99,,,0.00,Wunderground v.1.13,2013-03-05 01:02:00,
2013-03-04 17:07:00,-999.9,-99.9,29.95,North,32767,-999.0,0.0,255,-99.99,,,0.00,Wunderground v.1.13,2013-03-05 01:07:00,
2013-03-04 17:13:00,-999.9,-99.9,29.95,North,32767,-999.0,0.0,255,-99.99,,,0.00,Wunderground v.1.13,2013-03-05 01:13:00,
2013-03-04 17:19:00,-999.9,-99.9,29.95,North,32767,-999.0,0.0,255,-99.99,,,0.00,Wunderground v.1.13,2013-03-05 01:19:00,
2013-03-04 17:25:00,-999.9,-99.9,29.95,North,32767,-999.0,0.0,255,-99.99,,,0.00,Wunderground v.1.13,2013-03-05 01:25:00,
2013-03-04 17:31:00,-999.9,-99.9,29.96,SE,133,0.0,0.0,255,0.00,,,0.00,Wunderground v.1.13,2013-03-05 01:31:00,
2013-03-04 17:37:00,-999.9,-99.9,29.96,SE,133,0.0,0.0,255,0.00,,,0.00,Wunderground v.1.13,2013-03-05 01:37:00,
2013-03-04 17:43:00,-999.9,-99.9,29.96,SE,130,0.0,1.0,255,0.00,,,0.00,Wunderground v.1.13,2013-03-05 01:43:00,
2013-03-04 17:49:00,67.6,-99.9,29.96,SE,133,0.0,1.0,255,0.00,,,0.00,Wunderground v.1.13,2013-03-05 01:49:00,
2013-03-04 17:55:00,67.1,24.6,29.96,SE,133,0.0,0.0,20,0.00,,,0.00,Wunderground v.1.13,2013-03-05 01:55:00,
2013-03-04 18:01:00,66.3,25.2,29.93,SE,133,0.0,0.0,21,0.00,,,0.00,Wunderground v.1.13,2013-03-05 02:01:00,
2013-03-04 18:06:00,65.8,33.5,29.93,SE,133,0.0,0.0,30,0.00,,,0.00,Wunderground v.1.13,2013-03-05 02:06:00,
2013-03-04 18:12:00,64.8,34.2,29.93,SSE,168,0.0,0.0,32,0.00,,,0.00,Wunderground v.1.13,2013-03-05 02:12:00,
2013-03-04 18:17:00,64.0,35.8,29.92,SSE,167,0.0,1.0,35,0.00,,,0.00,Wunderground v.1.13,2013-03-05 02:17:00,
2013-03-04 18:23:00,63.2,38.5,29.92,SSE,168,0.0,0.0,40,0.00,,,0.00,Wunderground v.1.13,2013-03-05 02:23:00,
2013-03-04 18:29:00,62.3,38.9,29.92,SSE,168,0.0,0.0,42,0.00,,,0.00,Wunderground v.1.13,2013-03-05 02:29:00,
2013-03-04 18:35:00,61.5,38.8,29.93,SSE,168,0.0,0.0,43,0.00,,,0.00,Wunderground v.1.13,2013-03-05 02:35:00,
2013-03-04 18:41:00,60.7,38.6,29.93,SSE,167,0.0,0.0,44,0.00,,,0.00,Wunderground v.1.13,2013-03-05 02:41:00,
2013-03-04 18:47:00,59.9,38.5,29.93,SSE,167,0.0,2.0,45,0.00,,,0.00,Wunderground v.1.13,2013-03-05 02:47:00,
2013-03-04 18:53:00,59.2,37.9,29.93,SSE,161,0.0,0.0,45,0.00,,,0.00,Wunderground v.1.13,2013-03-05 02:53:00,
2013-03-04 18:59:00,58.3,38.1,29.93,SSE,168,0.0,1.0,47,0.00,,,0.00,Wunderground v.1.13,2013-03-05 02:59:00,
2013-03-04 19:05:00,57.5,37.9,29.94,SSW,212,1.0,1.0,48,0.00,,,0.00,Wunderground v.1.13,2013-03-05 03:05:00,
2013-03-04 19:11:00,57.0,38.5,29.94,West,272,2.0,2.0,50,0.00,,,0.00,Wunderground v.1.13,2013-03-05 03:11:00,
2013-03-04 19:17:00,57.2,37.7,29.94,WSW,256,2.0,4.0,48,0.00,,,0.00,Wunderground v.1.13,2013-03-05 03:17:00,
2013-03-04 19:23:00,57.2,37.7,29.94,WSW,254,2.0,2.0,48,0.00,,,0.00,Wunderground v.1.13,2013-03-05 03:23:00,
2013-03-04 19:29:00,56.9,37.9,29.94,WSW,253,1.0,2.0,49,0.00,,,0.00,Wunderground v.1.13,2013-03-05 03:29:00,
2013-03-04 19:34:00,56.6,37.6,29.94,WSW,253,1.0,2.0,49,0.00,,,0.00,Wunderground v.1.13,2013-03-05 03:34:00,
2013-03-04 19:40:00,56.0,37.1,29.94,WSW,253,1.0,1.0,49,0.00,,,0.00,Wunderground v.1.13,2013-03-05 03:40:00,
2013-03-04 19:46:00,55.4,37.1,29.94,WSW,253,1.0,1.0,50,0.00,,,0.00,Wunderground v.1.13,2013-03-05 03:46:00,
2013-03-04 19:52:00,55.0,36.7,29.94,WSW,253,1.0,2.0,50,0.00,,,0.00,Wunderground v.1.13,2013-03-05 03:52:00,
2013-03-04 19:58:00,54.5,36.7,29.94,WSW,253,1.0,1.0,51,0.00,,,0.00,Wunderground v.1.13,2013-03-05 03:58:00,
2013-03-04 20:04:00,54.2,36.5,29.95,WSW,253,0.0,2.0,51,0.00,,,0.00,Wunderground v.1.13,2013-03-05 04:04:00,
2013-03-04 20:09:00,53.9,36.7,29.95,WSW,253,0.0,2.0,52,0.00,,,0.00,Wunderground v.1.13,2013-03-05 04:09:00,
2013-03-04 20:15:00,53.8,37.1,29.93,WSW,254,1.0,1.0,53,0.00,,,0.00,Wunderground v.1.13,2013-03-05 04:15:00,
2013-03-04 20:20:00,53.5,36.8,29.93,WSW,254,1.0,1.0,53,0.00,,,0.00,Wunderground v.1.13,2013-03-05 04:20:00,
2013-03-04 20:25:00,53.3,36.6,29.93,WSW,254,1.0,1.0,53,0.00,,,0.00,Wunderground v.1.13,2013-03-05 04:25:00,
2013-03-04 20:31:00,53.1,36.9,29.94,WSW,254,1.0,1.0,54,0.00,,,0.00,Wunderground v.1.13,2013-03-05 04:31:00,
2013-03-04 20:37:00,52.8,36.6,29.94,WSW,254,1.0,2.0,54,0.00,,,0.00,Wunderground v.1.13,2013-03-05 04:37:00,
2013-03-04 20:42:00,52.3,35.7,29.94,WSW,253,2.0,2.0,53,0.00,,,0.00,Wunderground v.1.13,2013-03-05 04:42:00,
2013-03-04 20:48:00,51.7,35.6,29.95,WSW,251,1.0,2.0,54,0.00,,,0.00,Wunderground v.1.13,2013-03-05 04:48:00,
2013-03-04 20:54:00,50.7,34.6,29.95,SW,236,1.0,1.0,54,0.00,,,0.00,Wunderground v.1.13,2013-03-05 04:54:00,
2013-03-04 21:00:00,49.8,35.2,29.96,SW,220,2.0,2.0,57,0.00,,,0.00,Wunderground v.1.13,2013-03-05 05:00:00,
2013-03-04 21:05:00,49.1,34.9,29.96,SW,229,3.0,3.0,58,0.00,,,0.00,Wunderground v.1.13,2013-03-05 05:05:00,
2013-03-04 21:06:00,49.1,34.9,29.96,SW,229,3.0,3.0,58,0.00,,,0.00,Wunderground v.1.13,2013-03-05 05:06:00,
2013-03-04 21:08:00,48.9,34.8,29.96,SW,229,2.0,3.0,58,0.00,,,0.00,Wunderground v.1.13,2013-03-05 05:08:00,
2013-03-04 21:13:00,48.6,35.3,29.96,SW,229,2.0,2.0,60,0.00,,,0.00,Wunderground v.1.13,2013-03-05 05:13:00,
2013-03-04 21:19:00,48.5,35.2,29.95,SW,229,1.0,1.0,60,0.00,,,0.00,Wunderground v.1.13,2013-03-05 05:19:00,
2013-03-04 21:25:00,48.5,34.8,29.95,SW,229,1.0,2.0,59,0.00,,,0.00,Wunderground v.1.13,2013-03-05 05:25:00,
2013-03-04 21:31:00,48.5,34.4,29.95,SW,229,1.0,2.0,58,0.00,,,0.00,Wunderground v.1.13,2013-03-05 05:31:00,
2013-03-04 21:37:00,48.2,33.7,29.95,SW,232,1.0,2.0,57,0.00,,,0.00,Wunderground v.1.13,2013-03-05 05:37:00,
2013-03-04 21:43:00,47.9,32.5,29.95,SW,232,1.0,1.0,55,0.00,,,0.00,Wunderground v.1.13,2013-03-05 05:43:00,
2013-03-04 21:49:00,47.7,31.9,29.96,SW,232,1.0,2.0,54,0.00,,,0.00,Wunderground v.1.13,2013-03-05 05:49:00,
2013-03-04 21:55:00,47.6,31.8,29.96,SW,232,0.0,0.0,54,0.00,,,0.00,Wunderground v.1.13,2013-03-05 05:55:00,
2013-03-04 22:01:00,47.4,31.6,29.95,SW,232,0.0,6.0,54,0.00,,,0.00,Wunderground v.1.13,2013-03-05 06:01:00,
2013-03-04 22:06:00,47.1,31.3,29.95,SW,232,1.0,1.0,54,0.00,,,0.00,Wunderground v.1.13,2013-03-05 06:06:00,
2013-03-04 22:12:00,46.8,31.0,29.95,SW,232,0.0,1.0,54,0.00,,,0.00,Wunderground v.1.13,2013-03-05 06:12:00,
2013-03-04 22:18:00,46.5,30.7,29.96,SW,232,0.0,1.0,54,0.00,,,0.00,Wunderground v.1.13,2013-03-05 06:18:00,
2013-03-04 22:24:00,46.0,30.3,29.96,SW,230,1.0,1.0,54,0.00,,,0.00,Wunderground v.1.13,2013-03-05 06:24:00,
2013-03-04 22:30:00,45.4,30.2,29.97,South,186,1.0,1.0,55,0.00,,,0.00,Wunderground v.1.13,2013-03-05 06:30:00,
2013-03-04 22:36:00,45.2,30.4,29.97,SSW,193,0.0,0.0,56,0.00,,,0.00,Wunderground v.1.13,2013-03-05 06:36:00,
2013-03-04 22:42:00,45.4,30.6,29.97,South,185,0.0,1.0,56,0.00,,,0.00,Wunderground v.1.13,2013-03-05 06:42:00,
2013-03-04 22:48:00,44.9,28.8,29.97,SW,215,1.0,1.0,53,0.00,,,0.00,Wunderground v.1.13,2013-03-05 06:48:00,
2013-03-04 22:54:00,44.5,28.4,29.97,SW,222,1.0,2.0,53,0.00,,,0.00,Wunderground v.1.13,2013-03-05 06:54:00,
2013-03-04 23:00:00,43.8,28.2,29.97,South,171,1.0,1.0,54,0.00,,,0.00,Wunderground v.1.13,2013-03-05 07:00:00,
2013-03-04 23:05:00,43.6,29.4,29.97,SSE,168,1.0,1.0,57,0.00,,,0.00,Wunderground v.1.13,2013-03-05 07:05:00,
2013-03-04 23:11:00,43.8,31.6,29.97,SSW,192,1.0,3.0,62,0.00,,,0.00,Wunderground v.1.13,2013-03-05 07:11:00,
2013-03-04 23:17:00,44.1,31.9,29.97,SSW,209,1.0,1.0,62,0.00,,,0.00,Wunderground v.1.13,2013-03-05 07:17:00,
2013-03-04 23:23:00,44.5,33.8,29.97,SW,216,2.0,4.0,66,0.00,,,0.00,Wunderground v.1.13,2013-03-05 07:23:00,
2013-03-04 23:29:00,44.9,34.6,29.97,SSW,210,2.0,3.0,67,0.00,,,0.00,Wunderground v.1.13,2013-03-05 07:29:00,
2013-03-04 23:35:00,45.2,34.9,29.96,SSW,205,2.0,2.0,67,0.00,,,0.00,Wunderground v.1.13,2013-03-05 07:35:00,
2013-03-04 23:40:00,45.2,35.3,29.96,SSW,196,1.0,1.0,68,0.00,,,0.00,Wunderground v.1.13,2013-03-05 07:40:00,
2013-03-04 23:46:00,44.9,34.6,29.96,SSW,198,1.0,1.0,67,0.00,,,0.00,Wunderground v.1.13,2013-03-05 07:46:00,
2013-03-04 23:52:00,44.6,33.9,29.96,SSW,205,1.0,1.0,66,0.00,,,0.00,Wunderground v.1.13,2013-03-05 07:52:00,
2013-03-04 23:58:00,44.3,34.0,29.96,South,186,1.0,2.0,67,0.00,,,0.00,Wunderground v.1.13,2013-03-05 07:58:00,